sensor_id;sensor_type;location;lat;lon;timestamp;pressure;altitude;pressure_sealevel;temperature;humidity
28911;BME280;16028;42.642;23.310;2023-02-02T00:01:09;94049.03;;;5.99;49.88
28911;BME280;16028;42.642;23.310;2023-02-02T00:03:35;94051.72;;;5.98;50.20
28911;BME280;16028;42.642;23.310;2023-02-02T00:06:02;94054.53;;;5.95;50.10
28911;BME280;16028;42.642;23.310;2023-02-02T00:08:29;94058.19;;;5.92;50.85
28911;BME280;16028;42.642;23.310;2023-02-02T00:10:55;94050.09;;;5.97;50.17
28911;BME280;16028;42.642;23.310;2023-02-02T00:13:22;94051.28;;;5.93;50.00
28911;BME280;16028;42.642;23.310;2023-02-02T00:15:48;94047.88;;;5.92;51.77
28911;BME280;16028;42.642;23.310;2023-02-02T00:18:16;94040.22;;;5.91;51.21
28911;BME280;16028;42.642;23.310;2023-02-02T00:20:43;94047.59;;;5.62;52.35
28911;BME280;16028;42.642;23.310;2023-02-02T00:23:13;94046.44;;;5.66;52.16
28911;BME280;16028;42.642;23.310;2023-02-02T00:25:39;94038.72;;;5.77;51.84
28911;BME280;16028;42.642;23.310;2023-02-02T00:28:06;94035.41;;;5.53;53.11
28911;BME280;16028;42.642;23.310;2023-02-02T00:30:32;94038.22;;;5.39;53.82
28911;BME280;16028;42.642;23.310;2023-02-02T00:32:59;94045.72;;;5.42;54.40
28911;BME280;16028;42.642;23.310;2023-02-02T00:35:27;94047.38;;;5.31;55.12
28911;BME280;16028;42.642;23.310;2023-02-02T00:37:53;94052.25;;;5.23;56.90
28911;BME280;16028;42.642;23.310;2023-02-02T00:40:20;94054.59;;;5.26;57.79
28911;BME280;16028;42.642;23.310;2023-02-02T00:42:46;94058.81;;;5.16;57.56
28911;BME280;16028;42.642;23.310;2023-02-02T00:45:14;94058.59;;;5.30;57.59
28911;BME280;16028;42.642;23.310;2023-02-02T00:47:40;94061.66;;;5.24;57.46
28911;BME280;16028;42.642;23.310;2023-02-02T00:50:07;94046.88;;;5.26;57.67
28911;BME280;16028;42.642;23.310;2023-02-02T00:52:35;94058.25;;;5.24;58.07
28911;BME280;16028;42.642;23.310;2023-02-02T00:55:02;94060.72;;;5.37;58.31
28911;BME280;16028;42.642;23.310;2023-02-02T00:57:28;94054.72;;;5.36;58.23
28911;BME280;16028;42.642;23.310;2023-02-02T00:59:55;94056.88;;;5.42;58.08
28911;BME280;16028;42.642;23.310;2023-02-02T01:02:21;94056.63;;;5.56;57.99
28911;BME280;16028;42.642;23.310;2023-02-02T01:04:48;94054.44;;;5.52;57.55
28911;BME280;16028;42.642;23.310;2023-02-02T01:07:14;94044.22;;;5.50;58.18
28911;BME280;16028;42.642;23.310;2023-02-02T01:09:42;94045.03;;;5.51;57.88
28911;BME280;16028;42.642;23.310;2023-02-02T01:12:08;94044.78;;;5.54;57.52
28911;BME280;16028;42.642;23.310;2023-02-02T01:14:35;94040.78;;;5.27;58.16
28911;BME280;16028;42.642;23.310;2023-02-02T01:17:01;94030.09;;;5.21;57.93
28911;BME280;16028;42.642;23.310;2023-02-02T01:19:29;94025.06;;;5.08;58.13
28911;BME280;16028;42.642;23.310;2023-02-02T01:21:56;94028.00;;;5.15;58.32
28911;BME280;16028;42.642;23.310;2023-02-02T01:24:22;94013.91;;;5.08;57.70
28911;BME280;16028;42.642;23.310;2023-02-02T01:26:50;94022.00;;;5.03;58.35
28911;BME280;16028;42.642;23.310;2023-02-02T01:29:16;94028.09;;;5.02;58.03
28911;BME280;16028;42.642;23.310;2023-02-02T01:31:43;94024.00;;;5.00;57.94
28911;BME280;16028;42.642;23.310;2023-02-02T01:34:09;94017.31;;;4.97;57.81
28911;BME280;16028;42.642;23.310;2023-02-02T01:36:36;94025.16;;;4.96;58.29
28911;BME280;16028;42.642;23.310;2023-02-02T01:39:02;94022.69;;;4.94;58.21
28911;BME280;16028;42.642;23.310;2023-02-02T01:41:29;94015.56;;;4.98;58.06
28911;BME280;16028;42.642;23.310;2023-02-02T01:43:57;94012.75;;;5.01;58.28
28911;BME280;16028;42.642;23.310;2023-02-02T01:46:25;94013.66;;;4.89;57.92
28911;BME280;16028;42.642;23.310;2023-02-02T01:48:52;94010.19;;;5.01;57.81
28911;BME280;16028;42.642;23.310;2023-02-02T01:51:21;94013.31;;;4.93;58.05
28911;BME280;16028;42.642;23.310;2023-02-02T01:53:49;94001.34;;;4.92;57.82
28911;BME280;16028;42.642;23.310;2023-02-02T01:56:18;93999.00;;;4.89;58.04
28911;BME280;16028;42.642;23.310;2023-02-02T01:58:46;93998.41;;;4.86;58.57
28911;BME280;16028;42.642;23.310;2023-02-02T02:01:14;93997.03;;;4.82;58.51
28911;BME280;16028;42.642;23.310;2023-02-02T02:03:40;93990.34;;;4.90;58.33
28911;BME280;16028;42.642;23.310;2023-02-02T02:06:08;93991.50;;;4.86;58.23
28911;BME280;16028;42.642;23.310;2023-02-02T02:08:36;93995.75;;;4.87;58.17
28911;BME280;16028;42.642;23.310;2023-02-02T02:11:04;93990.66;;;4.74;57.12
28911;BME280;16028;42.642;23.310;2023-02-02T02:13:31;93988.78;;;4.76;57.47
28911;BME280;16028;42.642;23.310;2023-02-02T02:16:19;93993.56;;;4.70;57.71
28911;BME280;16028;42.642;23.310;2023-02-02T02:18:52;93988.56;;;4.68;57.35
28911;BME280;16028;42.642;23.310;2023-02-02T02:21:25;93985.59;;;4.62;56.14
28911;BME280;16028;42.642;23.310;2023-02-02T02:24:29;93990.53;;;4.65;55.46
28911;BME280;16028;42.642;23.310;2023-02-02T02:27:32;93975.69;;;4.68;53.58
28911;BME280;16028;42.642;23.310;2023-02-02T02:32:56;93975.09;;;4.76;53.59
28911;BME280;16028;42.642;23.310;2023-02-02T02:35:28;93977.91;;;4.73;52.85
28911;BME280;16028;42.642;23.310;2023-02-02T02:37:57;93975.91;;;4.76;51.67
28911;BME280;16028;42.642;23.310;2023-02-02T02:40:28;93986.81;;;4.80;51.61
28911;BME280;16028;42.642;23.310;2023-02-02T02:42:57;93973.94;;;4.80;51.40
28911;BME280;16028;42.642;23.310;2023-02-02T02:45:25;93976.41;;;4.82;51.11
28911;BME280;16028;42.642;23.310;2023-02-02T02:47:52;93988.34;;;4.82;50.96
28911;BME280;16028;42.642;23.310;2023-02-02T02:50:21;93971.13;;;4.83;50.56
28911;BME280;16028;42.642;23.310;2023-02-02T02:52:48;93979.56;;;4.85;51.08
28911;BME280;16028;42.642;23.310;2023-02-02T02:55:15;93989.44;;;4.91;50.73
28911;BME280;16028;42.642;23.310;2023-02-02T02:57:48;93982.84;;;4.87;49.71
28911;BME280;16028;42.642;23.310;2023-02-02T03:00:24;93986.13;;;4.89;49.70
28911;BME280;16028;42.642;23.310;2023-02-02T03:02:56;93996.69;;;4.97;50.36
28911;BME280;16028;42.642;23.310;2023-02-02T03:05:29;93988.28;;;5.06;50.07
28911;BME280;16028;42.642;23.310;2023-02-02T03:08:00;93987.81;;;5.12;50.38
28911;BME280;16028;42.642;23.310;2023-02-02T03:10:29;93982.38;;;5.04;50.17
28911;BME280;16028;42.642;23.310;2023-02-02T03:12:56;93970.34;;;4.94;50.07
28911;BME280;16028;42.642;23.310;2023-02-02T03:15:23;93977.00;;;4.96;49.79
28911;BME280;16028;42.642;23.310;2023-02-02T03:17:50;93977.94;;;4.95;50.82
28911;BME280;16028;42.642;23.310;2023-02-02T03:20:17;93976.19;;;4.96;50.93
28911;BME280;16028;42.642;23.310;2023-02-02T03:22:45;93979.00;;;4.93;51.13
28911;BME280;16028;42.642;23.310;2023-02-02T03:25:12;93973.47;;;4.86;52.42
28911;BME280;16028;42.642;23.310;2023-02-02T03:27:40;93972.88;;;4.82;49.84
28911;BME280;16028;42.642;23.310;2023-02-02T03:30:07;93978.16;;;4.92;50.36
28911;BME280;16028;42.642;23.310;2023-02-02T03:32:34;93969.97;;;4.87;52.11
28911;BME280;16028;42.642;23.310;2023-02-02T03:35:00;93960.72;;;4.85;50.47
28911;BME280;16028;42.642;23.310;2023-02-02T03:37:27;93958.13;;;4.85;49.62
28911;BME280;16028;42.642;23.310;2023-02-02T03:39:54;93965.97;;;4.83;50.10
28911;BME280;16028;42.642;23.310;2023-02-02T03:42:21;93972.31;;;4.90;48.88
28911;BME280;16028;42.642;23.310;2023-02-02T03:44:47;93966.09;;;4.93;49.92
28911;BME280;16028;42.642;23.310;2023-02-02T03:47:14;93968.09;;;4.89;50.77
28911;BME280;16028;42.642;23.310;2023-02-02T03:49:40;93975.13;;;4.87;50.22
28911;BME280;16028;42.642;23.310;2023-02-02T03:52:07;93971.72;;;4.87;49.59
28911;BME280;16028;42.642;23.310;2023-02-02T03:54:34;93970.06;;;4.86;49.35
28911;BME280;16028;42.642;23.310;2023-02-02T03:57:02;93978.97;;;4.82;48.59
28911;BME280;16028;42.642;23.310;2023-02-02T03:59:28;93975.94;;;4.88;48.20
28911;BME280;16028;42.642;23.310;2023-02-02T04:01:55;93990.22;;;4.92;48.48
28911;BME280;16028;42.642;23.310;2023-02-02T04:04:21;93992.00;;;4.91;48.24
28911;BME280;16028;42.642;23.310;2023-02-02T04:06:48;93987.09;;;4.88;48.42
28911;BME280;16028;42.642;23.310;2023-02-02T04:09:14;93985.19;;;4.90;49.15
28911;BME280;16028;42.642;23.310;2023-02-02T04:11:40;93995.75;;;4.87;49.94
28911;BME280;16028;42.642;23.310;2023-02-02T04:14:09;93992.44;;;4.85;49.53
28911;BME280;16028;42.642;23.310;2023-02-02T04:16:36;93997.59;;;4.85;49.00
28911;BME280;16028;42.642;23.310;2023-02-02T04:19:02;93999.84;;;4.90;49.42
28911;BME280;16028;42.642;23.310;2023-02-02T04:21:29;94010.28;;;4.88;48.97
28911;BME280;16028;42.642;23.310;2023-02-02T04:23:55;93991.50;;;4.86;49.14
28911;BME280;16028;42.642;23.310;2023-02-02T04:26:22;94000.28;;;4.84;49.10
28911;BME280;16028;42.642;23.310;2023-02-02T04:28:50;94000.28;;;4.84;49.87
28911;BME280;16028;42.642;23.310;2023-02-02T04:31:18;94008.47;;;4.77;49.82
28911;BME280;16028;42.642;23.310;2023-02-02T04:33:44;94020.53;;;4.77;49.66
28911;BME280;16028;42.642;23.310;2023-02-02T04:36:11;94005.69;;;4.80;49.86
28911;BME280;16028;42.642;23.310;2023-02-02T04:38:37;93987.75;;;4.79;50.18
28911;BME280;16028;42.642;23.310;2023-02-02T04:41:07;93990.53;;;4.76;50.47
28911;BME280;16028;42.642;23.310;2023-02-02T04:43:33;93998.50;;;4.73;50.79
28911;BME280;16028;42.642;23.310;2023-02-02T04:46:00;94006.59;;;4.68;49.99
28911;BME280;16028;42.642;23.310;2023-02-02T04:48:28;94018.88;;;4.76;50.08
28911;BME280;16028;42.642;23.310;2023-02-02T04:50:58;94008.47;;;4.77;48.67
28911;BME280;16028;42.642;23.310;2023-02-02T04:53:25;94005.91;;;4.77;49.00
28911;BME280;16028;42.642;23.310;2023-02-02T04:55:52;94007.44;;;4.80;49.11
28911;BME280;16028;42.642;23.310;2023-02-02T04:58:18;94008.25;;;4.80;49.06
28911;BME280;16028;42.642;23.310;2023-02-02T05:00:45;94009.91;;;4.93;49.71
28911;BME280;16028;42.642;23.310;2023-02-02T05:03:11;94010.13;;;4.90;49.85
28911;BME280;16028;42.642;23.310;2023-02-02T05:05:39;94003.94;;;4.92;48.73
28911;BME280;16028;42.642;23.310;2023-02-02T05:08:05;94005.81;;;4.90;49.68
28911;BME280;16028;42.642;23.310;2023-02-02T05:10:38;94004.88;;;4.91;49.47
28911;BME280;16028;42.642;23.310;2023-02-02T05:13:04;94005.22;;;4.87;49.45
28911;BME280;16028;42.642;23.310;2023-02-02T05:15:31;93982.94;;;4.86;49.16
28911;BME280;16028;42.642;23.310;2023-02-02T05:17:58;94007.78;;;4.87;49.42
28911;BME280;16028;42.642;23.310;2023-02-02T05:20:24;94009.91;;;4.93;48.67
28911;BME280;16028;42.642;23.310;2023-02-02T05:22:52;94008.16;;;4.93;48.14
28911;BME280;16028;42.642;23.310;2023-02-02T05:25:18;93981.34;;;4.85;49.21
28911;BME280;16028;42.642;23.310;2023-02-02T05:27:45;94000.28;;;4.84;49.37
28911;BME280;16028;42.642;23.310;2023-02-02T05:30:12;94001.81;;;4.86;49.95
28911;BME280;16028;42.642;23.310;2023-02-02T05:32:39;93998.53;;;4.84;50.32
28911;BME280;16028;42.642;23.310;2023-02-02T05:35:06;93991.13;;;4.79;50.59
28911;BME280;16028;42.642;23.310;2023-02-02T05:37:33;94011.75;;;4.79;50.69
28911;BME280;16028;42.642;23.310;2023-02-02T05:40:01;94011.97;;;4.76;50.57
28911;BME280;16028;42.642;23.310;2023-02-02T05:42:28;94011.75;;;4.79;50.20
28911;BME280;16028;42.642;23.310;2023-02-02T05:44:54;94007.31;;;4.82;50.71
28911;BME280;16028;42.642;23.310;2023-02-02T05:47:20;94007.09;;;4.85;49.73
28911;BME280;16028;42.642;23.310;2023-02-02T05:49:48;94022.31;;;4.88;50.26
28911;BME280;16028;42.642;23.310;2023-02-02T05:52:15;94009.81;;;4.94;48.80
28911;BME280;16028;42.642;23.310;2023-02-02T05:54:43;93997.28;;;5.01;47.62
28911;BME280;16028;42.642;23.310;2023-02-02T05:57:11;94004.09;;;5.13;47.86
28911;BME280;16028;42.642;23.310;2023-02-02T05:59:37;94006.91;;;5.10;48.33
28911;BME280;16028;42.642;23.310;2023-02-02T06:02:04;94005.84;;;5.12;48.43
28911;BME280;16028;42.642;23.310;2023-02-02T06:04:30;94017.00;;;5.13;48.89
28911;BME280;16028;42.642;23.310;2023-02-02T06:06:57;94011.25;;;5.09;49.14
28911;BME280;16028;42.642;23.310;2023-02-02T06:09:23;94010.53;;;5.18;49.54
28911;BME280;16028;42.642;23.310;2023-02-02T06:11:50;94015.25;;;5.13;48.05
28911;BME280;16028;42.642;23.310;2023-02-02T06:14:18;94001.06;;;5.19;47.32
28911;BME280;16028;42.642;23.310;2023-02-02T06:16:44;94022.97;;;5.24;47.49
28911;BME280;16028;42.642;23.310;2023-02-02T06:19:11;94033.78;;;5.29;48.24
28911;BME280;16028;42.642;23.310;2023-02-02T06:21:37;94035.63;;;5.27;48.72
28911;BME280;16028;42.642;23.310;2023-02-02T06:24:04;94037.50;;;5.25;48.38
28911;BME280;16028;42.642;23.310;2023-02-02T06:26:30;94040.78;;;5.27;48.68
28911;BME280;16028;42.642;23.310;2023-02-02T06:28:57;94048.28;;;5.30;48.40
28911;BME280;16028;42.642;23.310;2023-02-02T06:31:25;94046.78;;;5.39;48.23
28911;BME280;16028;42.642;23.310;2023-02-02T06:33:52;94046.91;;;5.38;48.43
28911;BME280;16028;42.642;23.310;2023-02-02T06:36:19;94056.06;;;5.42;48.78
28911;BME280;16028;42.642;23.310;2023-02-02T06:38:47;94051.22;;;5.37;49.27
28911;BME280;16028;42.642;23.310;2023-02-02T06:41:13;94056.66;;;5.45;49.27
28911;BME280;16028;42.642;23.310;2023-02-02T06:43:40;94068.34;;;5.49;48.49
28911;BME280;16028;42.642;23.310;2023-02-02T06:46:06;94053.94;;;5.47;47.80
28911;BME280;16028;42.642;23.310;2023-02-02T06:48:34;94058.16;;;5.48;48.51
28911;BME280;16028;42.642;23.310;2023-02-02T06:51:00;94062.50;;;5.47;49.97
28911;BME280;16028;42.642;23.310;2023-02-02T06:53:29;94054.66;;;5.49;49.39
28911;BME280;16028;42.642;23.310;2023-02-02T06:55:56;94050.66;;;5.45;49.04
28911;BME280;16028;42.642;23.310;2023-02-02T06:58:23;94056.41;;;5.48;49.14
28911;BME280;16028;42.642;23.310;2023-02-02T07:00:49;94063.09;;;5.51;48.59
28911;BME280;16028;42.642;23.310;2023-02-02T07:03:16;94056.88;;;5.53;48.58
28911;BME280;16028;42.642;23.310;2023-02-02T07:05:45;94062.84;;;5.54;48.76
28911;BME280;16028;42.642;23.310;2023-02-02T07:08:11;94057.94;;;5.51;49.71
28911;BME280;16028;42.642;23.310;2023-02-02T07:10:38;94069.19;;;5.50;50.06
28911;BME280;16028;42.642;23.310;2023-02-02T07:13:05;94038.47;;;5.47;49.78
28911;BME280;16028;42.642;23.310;2023-02-02T07:15:31;94068.59;;;5.46;50.29
28911;BME280;16028;42.642;23.310;2023-02-02T07:17:58;94066.25;;;5.54;50.41
28911;BME280;16028;42.642;23.310;2023-02-02T07:20:25;94055.13;;;5.54;50.76
28911;BME280;16028;42.642;23.310;2023-02-02T07:22:53;94074.69;;;5.56;49.46
28911;BME280;16028;42.642;23.310;2023-02-02T07:25:19;94062.53;;;5.58;49.90
28911;BME280;16028;42.642;23.310;2023-02-02T07:27:46;94058.28;;;5.57;49.77
28911;BME280;16028;42.642;23.310;2023-02-02T07:30:13;94081.97;;;5.51;50.46
28911;BME280;16028;42.642;23.310;2023-02-02T07:32:44;94082.91;;;5.39;51.12
28911;BME280;16028;42.642;23.310;2023-02-02T07:35:11;94080.88;;;5.31;51.85
28911;BME280;16028;42.642;23.310;2023-02-02T07:37:37;94089.53;;;5.30;52.23
28911;BME280;16028;42.642;23.310;2023-02-02T07:40:06;94085.94;;;5.44;52.24
28911;BME280;16028;42.642;23.310;2023-02-02T07:42:32;94088.19;;;5.60;52.33
28911;BME280;16028;42.642;23.310;2023-02-02T07:44:59;94080.81;;;5.77;51.86
28911;BME280;16028;42.642;23.310;2023-02-02T07:47:25;94082.34;;;5.80;51.59
28911;BME280;16028;42.642;23.310;2023-02-02T07:49:52;94069.19;;;5.72;50.74
28911;BME280;16028;42.642;23.310;2023-02-02T07:52:19;94066.03;;;5.79;50.71
28911;BME280;16028;42.642;23.310;2023-02-02T07:54:45;94060.06;;;5.68;50.25
28911;BME280;16028;42.642;23.310;2023-02-02T07:57:15;94054.91;;;5.68;50.75
28911;BME280;16028;42.642;23.310;2023-02-02T07:59:41;94050.41;;;5.81;51.39
28911;BME280;16028;42.642;23.310;2023-02-02T08:02:08;94039.78;;;5.85;50.75
28911;BME280;16028;42.642;23.310;2023-02-02T08:04:34;94039.41;;;6.01;50.82
28911;BME280;16028;42.642;23.310;2023-02-02T08:07:01;94039.75;;;6.08;50.46
28911;BME280;16028;42.642;23.310;2023-02-02T08:09:27;94044.56;;;6.01;52.05
28911;BME280;16028;42.642;23.310;2023-02-02T08:11:54;94037.50;;;6.03;52.13
28911;BME280;16028;42.642;23.310;2023-02-02T08:14:27;94018.84;;;6.11;51.77
28911;BME280;16028;42.642;23.310;2023-02-02T08:16:53;94019.28;;;6.16;50.91
28911;BME280;16028;42.642;23.310;2023-02-02T08:19:20;94033.63;;;6.20;50.91
28911;BME280;16028;42.642;23.310;2023-02-02T08:21:46;94040.63;;;6.29;51.94
28911;BME280;16028;42.642;23.310;2023-02-02T08:24:13;94029.22;;;6.43;50.92
28911;BME280;16028;42.642;23.310;2023-02-02T08:26:39;94022.22;;;6.54;50.68
28911;BME280;16028;42.642;23.310;2023-02-02T08:29:06;94029.03;;;6.55;50.52
28911;BME280;16028;42.642;23.310;2023-02-02T08:31:35;94016.94;;;6.56;51.49
28911;BME280;16028;42.642;23.310;2023-02-02T08:34:02;94016.53;;;6.39;51.78
28911;BME280;16028;42.642;23.310;2023-02-02T08:36:29;94025.97;;;6.29;51.93
28911;BME280;16028;42.642;23.310;2023-02-02T08:38:58;94026.53;;;6.33;52.56
28911;BME280;16028;42.642;23.310;2023-02-02T08:41:25;94033.47;;;6.32;52.34
28911;BME280;16028;42.642;23.310;2023-02-02T08:43:51;94029.59;;;6.38;52.57
28911;BME280;16028;42.642;23.310;2023-02-02T08:46:18;94030.97;;;6.42;52.08
28911;BME280;16028;42.642;23.310;2023-02-02T08:48:47;94024.38;;;6.49;52.69
28911;BME280;16028;42.642;23.310;2023-02-02T08:51:14;94024.13;;;6.52;54.66
28911;BME280;16028;42.642;23.310;2023-02-02T08:53:41;94015.56;;;6.52;55.58
28911;BME280;16028;42.642;23.310;2023-02-02T08:56:08;94017.13;;;6.32;56.27
28911;BME280;16028;42.642;23.310;2023-02-02T08:58:35;94009.19;;;6.24;57.56
28911;BME280;16028;42.642;23.310;2023-02-02T09:01:03;94027.75;;;6.18;57.17
28911;BME280;16028;42.642;23.310;2023-02-02T09:03:30;94022.03;;;6.03;58.63
28911;BME280;16028;42.642;23.310;2023-02-02T09:05:57;94027.66;;;5.97;56.76
28911;BME280;16028;42.642;23.310;2023-02-02T09:08:29;94032.03;;;5.97;56.38
28911;BME280;16028;42.642;23.310;2023-02-02T09:10:55;94015.34;;;6.01;57.13
28911;BME280;16028;42.642;23.310;2023-02-02T09:13:21;94007.25;;;6.05;55.00
28911;BME280;16028;42.642;23.310;2023-02-02T09:15:48;94022.59;;;6.18;56.28
28911;BME280;16028;42.642;23.310;2023-02-02T09:18:14;94023.38;;;6.29;55.13
28911;BME280;16028;42.642;23.310;2023-02-02T09:20:41;94022.69;;;6.16;57.41
28911;BME280;16028;42.642;23.310;2023-02-02T09:23:09;94023.91;;;6.12;57.51
28911;BME280;16028;42.642;23.310;2023-02-02T09:25:35;94019.00;;;6.09;57.65
28911;BME280;16028;42.642;23.310;2023-02-02T09:28:02;94007.13;;;6.07;58.39
28911;BME280;16028;42.642;23.310;2023-02-02T09:30:28;94013.09;;;6.18;56.66
28911;BME280;16028;42.642;23.310;2023-02-02T09:32:55;94008.06;;;6.49;54.50
28911;BME280;16028;42.642;23.310;2023-02-02T09:35:21;94005.44;;;6.60;55.92
28911;BME280;16028;42.642;23.310;2023-02-02T09:37:47;93996.78;;;6.70;55.47
28911;BME280;16028;42.642;23.310;2023-02-02T09:40:16;93982.50;;;6.66;52.80
28911;BME280;16028;42.642;23.310;2023-02-02T09:42:47;93988.63;;;6.86;52.93
28911;BME280;16028;42.642;23.310;2023-02-02T09:45:21;93985.97;;;6.97;50.89
28911;BME280;16028;42.642;23.310;2023-02-02T09:47:51;93979.78;;;7.09;50.12
28911;BME280;16028;42.642;23.310;2023-02-02T09:50:20;93980.59;;;7.30;49.60
28911;BME280;16028;42.642;23.310;2023-02-02T09:52:50;93969.56;;;7.38;48.42
28911;BME280;16028;42.642;23.310;2023-02-02T09:55:22;93977.38;;;7.47;47.75
28911;BME280;16028;42.642;23.310;2023-02-02T09:57:53;93958.47;;;7.57;48.36
28911;BME280;16028;42.642;23.310;2023-02-02T10:00:24;93954.13;;;7.57;48.17
28911;BME280;16028;42.642;23.310;2023-02-02T10:02:54;93970.75;;;7.55;49.30
28911;BME280;16028;42.642;23.310;2023-02-02T10:05:25;93956.56;;;7.49;48.99
28911;BME280;16028;42.642;23.310;2023-02-02T10:07:54;93951.38;;;7.49;49.10
28911;BME280;16028;42.642;23.310;2023-02-02T10:10:25;93945.00;;;7.63;48.75
28911;BME280;16028;42.642;23.310;2023-02-02T10:12:53;93956.88;;;7.65;48.32
28911;BME280;16028;42.642;23.310;2023-02-02T10:15:24;93927.84;;;7.62;48.63
28911;BME280;16028;42.642;23.310;2023-02-02T10:17:56;93943.94;;;7.65;48.04
28911;BME280;16028;42.642;23.310;2023-02-02T10:20:27;93943.13;;;7.65;48.99
28911;BME280;16028;42.642;23.310;2023-02-02T10:22:56;93939.31;;;7.69;48.14
28911;BME280;16028;42.642;23.310;2023-02-02T10:25:26;93931.84;;;7.75;48.75
28911;BME280;16028;42.642;23.310;2023-02-02T10:27:55;93938.94;;;7.83;48.52
28911;BME280;16028;42.642;23.310;2023-02-02T10:30:24;93924.91;;;7.85;48.43
28911;BME280;16028;42.642;23.310;2023-02-02T10:32:56;93922.59;;;7.92;49.44
28911;BME280;16028;42.642;23.310;2023-02-02T10:35:31;93908.16;;;7.89;48.63
28911;BME280;16028;42.642;23.310;2023-02-02T10:38:02;93909.63;;;7.82;48.06
28911;BME280;16028;42.642;23.310;2023-02-02T10:40:38;93904.34;;;7.84;49.74
28911;BME280;16028;42.642;23.310;2023-02-02T10:43:13;93891.25;;;7.85;49.09
28911;BME280;16028;42.642;23.310;2023-02-02T10:46:02;93890.28;;;7.77;48.82
28911;BME280;16028;42.642;23.310;2023-02-02T10:48:30;93884.81;;;7.61;49.05
28911;BME280;16028;42.642;23.310;2023-02-02T10:51:00;93876.22;;;7.70;49.30
28911;BME280;16028;42.642;23.310;2023-02-02T10:53:28;93877.31;;;7.58;48.63
28911;BME280;16028;42.642;23.310;2023-02-02T10:55:57;93865.03;;;7.60;49.29
28911;BME280;16028;42.642;23.310;2023-02-02T10:58:25;93868.59;;;7.59;47.72
28911;BME280;16028;42.642;23.310;2023-02-02T11:00:54;93853.47;;;7.64;49.44
28911;BME280;16028;42.642;23.310;2023-02-02T11:03:23;93842.03;;;7.76;47.79
28911;BME280;16028;42.642;23.310;2023-02-02T11:05:51;93854.72;;;7.79;49.03
28911;BME280;16028;42.642;23.310;2023-02-02T11:08:36;93861.94;;;7.85;49.49
28911;BME280;16028;42.642;23.310;2023-02-02T11:11:10;93861.69;;;7.88;48.78
28911;BME280;16028;42.642;23.310;2023-02-02T11:13:38;93857.19;;;7.99;49.02
28911;BME280;16028;42.642;23.310;2023-02-02T11:16:16;93857.47;;;8.16;48.12
28911;BME280;16028;42.642;23.310;2023-02-02T11:18:43;93849.00;;;8.23;47.63
28911;BME280;16028;42.642;23.310;2023-02-02T11:21:14;93845.72;;;8.21;47.02
28911;BME280;16028;42.642;23.310;2023-02-02T11:23:49;93846.56;;;8.31;47.11
28911;BME280;16028;42.642;23.310;2023-02-02T11:26:17;93821.44;;;8.51;45.91
28911;BME280;16028;42.642;23.310;2023-02-02T11:28:44;93841.94;;;8.44;45.40
28911;BME280;16028;42.642;23.310;2023-02-02T11:31:28;93814.38;;;8.43;46.03
28911;BME280;16028;42.642;23.310;2023-02-02T11:33:57;93812.00;;;8.60;46.28
28911;BME280;16028;42.642;23.310;2023-02-02T11:36:32;93811.69;;;8.72;45.16
28911;BME280;16028;42.642;23.310;2023-02-02T11:39:12;93812.31;;;8.84;45.48
28911;BME280;16028;42.642;23.310;2023-02-02T11:41:41;93800.66;;;8.70;45.30
28911;BME280;16028;42.642;23.310;2023-02-02T11:44:10;93807.44;;;8.81;46.50
28911;BME280;16028;42.642;23.310;2023-02-02T11:46:40;93813.03;;;8.86;46.34
28911;BME280;16028;42.642;23.310;2023-02-02T11:49:13;93803.44;;;8.96;44.35
28911;BME280;16028;42.642;23.310;2023-02-02T11:51:43;93809.91;;;9.10;45.28
28911;BME280;16028;42.642;23.310;2023-02-02T11:54:14;93808.19;;;9.00;45.04
28911;BME280;16028;42.642;23.310;2023-02-02T11:56:46;93791.47;;;9.13;46.18
28911;BME280;16028;42.642;23.310;2023-02-02T11:59:25;93789.16;;;9.10;42.84
28911;BME280;16028;42.642;23.310;2023-02-02T12:02:07;93781.81;;;9.05;42.96
28911;BME280;16028;42.642;23.310;2023-02-02T12:04:35;93788.41;;;8.99;44.30
28911;BME280;16028;42.642;23.310;2023-02-02T12:07:12;93799.78;;;8.89;44.62
28911;BME280;16028;42.642;23.310;2023-02-02T12:09:42;93782.84;;;8.85;44.59
28911;BME280;16028;42.642;23.310;2023-02-02T12:12:14;93793.38;;;8.83;45.32
28911;BME280;16028;42.642;23.310;2023-02-02T12:14:45;93786.13;;;8.87;45.93
28911;BME280;16028;42.642;23.310;2023-02-02T12:17:17;93795.91;;;9.02;44.54
28911;BME280;16028;42.642;23.310;2023-02-02T12:20:01;93791.50;;;9.03;45.36
28911;BME280;16028;42.642;23.310;2023-02-02T12:22:44;93789.03;;;9.11;45.51
28911;BME280;16028;42.642;23.310;2023-02-02T12:25:22;93795.38;;;8.99;45.79
28911;BME280;16028;42.642;23.310;2023-02-02T12:27:54;93784.50;;;8.86;44.96
28911;BME280;16028;42.642;23.310;2023-02-02T12:30:26;93794.59;;;8.89;45.97
28911;BME280;16028;42.642;23.310;2023-02-02T12:33:00;93795.38;;;8.99;44.29
28911;BME280;16028;42.642;23.310;2023-02-02T12:35:36;93800.88;;;8.86;43.73
28911;BME280;16028;42.642;23.310;2023-02-02T12:38:09;93802.19;;;8.90;43.32
28911;BME280;16028;42.642;23.310;2023-02-02T12:40:45;93801.41;;;8.90;43.76
28911;BME280;16028;42.642;23.310;2023-02-02T12:43:24;93798.41;;;8.85;43.82
28911;BME280;16028;42.642;23.310;2023-02-02T12:46:00;93799.84;;;8.70;43.25
28911;BME280;16028;42.642;23.310;2023-02-02T12:48:35;93799.59;;;8.63;42.73
28911;BME280;16028;42.642;23.310;2023-02-02T12:51:09;93804.06;;;8.71;43.99
28911;BME280;16028;42.642;23.310;2023-02-02T12:53:40;93801.88;;;8.76;43.83
28911;BME280;16028;42.642;23.310;2023-02-02T12:56:13;93788.56;;;8.88;42.98
28911;BME280;16028;42.642;23.310;2023-02-02T12:58:48;93795.16;;;8.83;43.86
28911;BME280;16028;42.642;23.310;2023-02-02T13:01:28;93802.50;;;8.87;44.41
28911;BME280;16028;42.642;23.310;2023-02-02T13:04:20;93803.78;;;8.74;44.12
28911;BME280;16028;42.642;23.310;2023-02-02T13:09:36;93799.78;;;8.89;43.97
28911;BME280;16028;42.642;23.310;2023-02-02T13:12:07;93804.00;;;8.90;44.84
28911;BME280;16028;42.642;23.310;2023-02-02T13:14:37;93799.19;;;8.95;43.76